Austin (LCRA Redbud)'s Hourly Summary for Tuesday, March 14, 2017
Hour Temp
(f)
RH
(%)
Solar Rad.
(MJ/m2)
Rainfall
(in)
Wind
(mph)
3/14/2017 12:00 AM 50 94 0 0 0
3/14/2017 1:00 AM 49 96 0 0 0
3/14/2017 2:00 AM 48 96 0 0 0
3/14/2017 3:00 AM 47 92 0 0 0.13
3/14/2017 4:00 AM 45 92 0 0 0.03
3/14/2017 5:00 AM 43 89 0 0 0.07
3/14/2017 6:00 AM 42 88 0 0 0.19
3/14/2017 7:00 AM 41 91 0 0 0.04
3/14/2017 8:00 AM 40 88 0.01 0 0.19
3/14/2017 9:00 AM 42 68 0.29 0 0.02
3/14/2017 10:00 AM 50 46 1.19 0 0.53
3/14/2017 11:00 AM 54 37 1.92 0 1.52
3/14/2017 12:00 PM 56 37 2.54 0 2.28
3/14/2017 1:00 PM 60 36 2.97 0 2.78
3/14/2017 2:00 PM 64 35 3.17 0 2.92
3/14/2017 3:00 PM 68 30 3.13 0 4.21
3/14/2017 4:00 PM 71 28 2.83 0 4.28
3/14/2017 5:00 PM 71 30 2.26 0 5.1
3/14/2017 6:00 PM 72 31 1.57 0 4.91
3/14/2017 7:00 PM 72 30 0.79 0 3.96
3/14/2017 8:00 PM 69 29 0.11 0 2.09
3/14/2017 9:00 PM 62 36 0 0 0
3/14/2017 10:00 PM 56 61 0 0 0
3/14/2017 11:00 PM 53 70 0 0 0
Data Summary 55 59 22.78 0.00 1.47